createdAt,value
2018-07-06T00:00:10.038Z,2.40
2018-07-06T00:01:24.928Z,2.63
2018-07-06T00:02:39.642Z,2.53
2018-07-06T00:03:54.843Z,2.77
2018-07-06T00:05:09.556Z,3.00
2018-07-06T00:06:24.293Z,2.17
2018-07-06T00:07:38.928Z,2.60
2018-07-06T00:08:53.636Z,2.20
2018-07-06T00:10:08.321Z,2.13
2018-07-06T00:11:22.913Z,3.27
2018-07-06T00:12:37.705Z,2.90
2018-07-06T00:13:52.295Z,2.40
2018-07-06T00:15:06.956Z,2.65
2018-07-06T00:16:21.798Z,3.10
2018-07-06T00:17:36.405Z,2.50
2018-07-06T00:18:51.080Z,2.47
2018-07-06T00:20:05.937Z,2.37
2018-07-06T00:21:20.683Z,2.80
2018-07-06T00:22:35.289Z,3.00
2018-07-06T00:23:49.965Z,3.30
2018-07-06T00:25:04.753Z,3.17
2018-07-06T00:26:19.648Z,2.40
2018-07-06T00:27:34.468Z,2.90
2018-07-06T00:28:49.217Z,2.95
2018-07-06T00:30:03.870Z,3.20
2018-07-06T00:31:18.522Z,3.10
2018-07-06T00:32:33.091Z,3.50
2018-07-06T00:33:47.777Z,2.77
2018-07-06T00:35:02.513Z,2.75
2018-07-06T00:36:17.227Z,2.92
2018-07-06T00:37:31.934Z,3.00
2018-07-06T00:38:46.689Z,3.10
2018-07-06T00:40:01.386Z,3.02
2018-07-06T00:41:16.276Z,2.90
2018-07-06T00:42:31.013Z,3.22
2018-07-06T00:43:45.607Z,3.43
2018-07-06T00:45:00.464Z,3.40
2018-07-06T00:46:15.081Z,3.22
2018-07-06T00:47:29.748Z,2.65
2018-07-06T00:48:44.556Z,3.15
2018-07-06T00:49:59.419Z,2.87
2018-07-06T00:51:14.237Z,3.17
2018-07-06T00:52:28.973Z,3.05
2018-07-06T00:53:43.664Z,3.50
2018-07-06T00:54:58.285Z,2.98
2018-07-06T00:56:12.949Z,3.55
2018-07-06T00:57:27.772Z,4.20
2018-07-06T00:58:42.470Z,3.47
2018-07-06T00:59:56.944Z,3.87
2018-07-06T01:01:11.627Z,4.45
2018-07-06T01:02:26.377Z,3.87
2018-07-06T01:03:41.232Z,4.30
2018-07-06T01:04:56.030Z,5.67
2018-07-06T01:06:10.661Z,4.37
2018-07-06T01:07:25.413Z,4.60
2018-07-06T01:08:40.042Z,4.70
2018-07-06T01:09:54.803Z,4.00
2018-07-06T01:11:09.790Z,4.92
2018-07-06T01:12:29.875Z,4.05
2018-07-06T01:13:44.556Z,4.03
2018-07-06T01:15:01.843Z,4.60
2018-07-06T01:16:16.587Z,5.20
2018-07-06T01:17:31.308Z,4.47
2018-07-06T01:18:46.191Z,4.30
2018-07-06T01:20:00.921Z,4.20
2018-07-06T01:21:15.508Z,4.83
2018-07-06T01:22:30.109Z,3.90
2018-07-06T01:23:44.860Z,5.28
2018-07-06T01:24:59.713Z,4.40
2018-07-06T01:26:14.805Z,3.87
2018-07-06T01:27:29.617Z,3.95
2018-07-06T01:28:44.132Z,4.00
2018-07-06T01:29:58.865Z,4.40
2018-07-06T01:31:13.648Z,4.00
2018-07-06T01:32:28.348Z,5.22
2018-07-06T01:33:42.985Z,4.85
2018-07-06T01:34:57.745Z,5.17
2018-07-06T01:36:12.369Z,5.10
2018-07-06T01:37:27.174Z,4.42
2018-07-06T01:38:41.859Z,4.50
2018-07-06T01:39:56.526Z,3.70
2018-07-06T01:41:11.090Z,4.47
2018-07-06T01:42:25.893Z,5.40
2018-07-06T01:43:40.682Z,5.50
2018-07-06T01:44:55.208Z,3.80
2018-07-06T01:46:09.927Z,3.70
2018-07-06T01:47:24.735Z,4.40
2018-07-06T01:48:39.352Z,4.33
2018-07-06T01:49:54.056Z,4.75
2018-07-06T01:51:08.986Z,3.72
2018-07-06T01:52:23.781Z,4.00
2018-07-06T01:53:38.512Z,3.75
2018-07-06T01:54:53.272Z,4.47
2018-07-06T01:56:07.901Z,4.25
2018-07-06T01:57:22.643Z,3.72
2018-07-06T01:58:37.356Z,4.20
2018-07-06T01:59:52.086Z,4.30
2018-07-06T02:01:06.661Z,4.55
2018-07-06T02:02:21.357Z,4.37
2018-07-06T02:03:36.025Z,3.77
2018-07-06T02:04:50.753Z,4.75
2018-07-06T02:06:05.429Z,4.25
2018-07-06T02:07:20.085Z,4.20
2018-07-06T02:08:34.804Z,5.30
2018-07-06T02:09:49.667Z,4.90
2018-07-06T02:11:04.434Z,3.62
2018-07-06T02:12:18.920Z,4.62
2018-07-06T02:13:33.653Z,4.80
2018-07-06T02:14:48.157Z,4.65
2018-07-06T02:16:03.319Z,3.75
2018-07-06T02:17:17.932Z,4.97
2018-07-06T02:18:32.733Z,4.78
2018-07-06T02:19:47.229Z,5.12
2018-07-06T02:21:02.197Z,3.40
2018-07-06T02:22:16.742Z,4.20
2018-07-06T02:23:31.286Z,5.22
2018-07-06T02:24:46.141Z,5.75
2018-07-06T02:26:00.951Z,5.08
2018-07-06T02:27:15.805Z,5.08
2018-07-06T02:28:30.464Z,5.37
2018-07-06T02:29:45.309Z,6.03
2018-07-06T02:30:59.955Z,5.25
2018-07-06T02:32:14.720Z,5.15
2018-07-06T02:33:29.481Z,6.72
2018-07-06T02:34:44.313Z,5.83
2018-07-06T02:35:59.252Z,4.95
2018-07-06T02:37:13.820Z,4.83
2018-07-06T02:38:28.409Z,5.20
2018-07-06T02:39:43.204Z,6.75
2018-07-06T02:40:57.968Z,4.65
2018-07-06T02:42:12.778Z,5.42
2018-07-06T02:43:27.327Z,4.90
2018-07-06T02:44:42.105Z,5.78
2018-07-06T02:45:56.688Z,5.78
2018-07-06T02:47:11.510Z,5.80
2018-07-06T02:48:26.237Z,4.72
2018-07-06T02:49:40.926Z,5.10
2018-07-06T02:50:55.769Z,5.10
2018-07-06T02:52:10.505Z,5.03
2018-07-06T02:53:25.296Z,4.67
2018-07-06T02:54:40.130Z,6.17
2018-07-06T02:55:54.881Z,4.45
2018-07-06T02:57:09.508Z,5.80
2018-07-06T02:58:25.381Z,4.47
2018-07-06T02:59:40.185Z,5.05
2018-07-06T03:00:54.873Z,5.60
2018-07-06T03:02:03.679Z,5.75
2018-07-06T03:03:18.425Z,4.50
2018-07-06T03:04:33.137Z,4.97
2018-07-06T03:05:47.875Z,5.42
2018-07-06T03:07:02.615Z,5.67
2018-07-06T03:08:17.222Z,5.25
2018-07-06T03:09:31.972Z,5.60
2018-07-06T03:10:46.685Z,5.37
2018-07-06T03:12:01.533Z,5.60
2018-07-06T03:13:16.297Z,4.08
2018-07-06T03:14:31.009Z,4.95
2018-07-06T03:15:45.698Z,5.47
2018-07-06T03:17:00.428Z,5.00
2018-07-06T03:18:15.036Z,4.25
2018-07-06T03:19:29.681Z,5.85
2018-07-06T03:20:44.847Z,6.05
2018-07-06T03:21:59.574Z,6.08
2018-07-06T03:23:14.143Z,5.60
2018-07-06T03:24:28.847Z,5.30
2018-07-06T03:25:43.512Z,5.30
2018-07-06T03:26:58.245Z,5.85
2018-07-06T03:28:12.866Z,6.17
2018-07-06T03:29:27.652Z,6.03
2018-07-06T03:30:42.323Z,5.80
2018-07-06T03:31:57.420Z,5.20
2018-07-06T03:33:12.125Z,4.80
2018-07-06T03:34:27.018Z,4.92
2018-07-06T03:35:41.665Z,6.20
2018-07-06T03:36:56.482Z,5.37
2018-07-06T03:38:11.152Z,5.60
2018-07-06T03:39:25.985Z,5.87
2018-07-06T03:40:40.745Z,6.75
2018-07-06T03:41:55.324Z,6.40
2018-07-06T03:43:09.942Z,5.67
2018-07-06T03:44:24.605Z,5.90
2018-07-06T03:45:39.235Z,6.90
2018-07-06T03:46:53.989Z,6.00
2018-07-06T03:48:08.706Z,6.78
2018-07-06T03:49:23.449Z,6.40
2018-07-06T03:50:38.200Z,4.83
2018-07-06T03:51:52.891Z,6.37
2018-07-06T03:53:07.545Z,6.03
2018-07-06T03:54:22.192Z,5.30
2018-07-06T03:55:36.988Z,6.33
2018-07-06T03:56:51.702Z,6.55
2018-07-06T03:58:06.380Z,5.45
2018-07-06T03:59:21.104Z,5.60
2018-07-06T04:00:35.801Z,6.13
2018-07-06T04:01:50.556Z,5.75
2018-07-06T04:03:05.134Z,5.50
2018-07-06T04:04:19.936Z,6.30
2018-07-06T04:05:34.762Z,5.28
2018-07-06T04:06:49.465Z,6.40
2018-07-06T04:08:04.173Z,5.67
2018-07-06T04:09:19.278Z,5.55
2018-07-06T04:10:34.003Z,6.25
2018-07-06T04:11:48.662Z,6.70
2018-07-06T04:13:03.388Z,7.05
2018-07-06T04:14:17.983Z,6.12
2018-07-06T04:15:32.717Z,5.08
2018-07-06T04:16:47.472Z,6.35
2018-07-06T04:18:02.238Z,6.22
2018-07-06T04:19:16.921Z,5.78
2018-07-06T04:20:31.628Z,6.55
2018-07-06T04:21:46.225Z,5.80
2018-07-06T04:23:00.908Z,5.55
2018-07-06T04:24:15.647Z,5.55
2018-07-06T04:25:30.157Z,6.12
2018-07-06T04:26:44.787Z,5.80
2018-07-06T04:27:59.477Z,6.40
2018-07-06T04:29:14.345Z,5.17
2018-07-06T04:30:29.264Z,6.55
2018-07-06T04:31:43.997Z,6.10
2018-07-06T04:32:58.776Z,5.85
2018-07-06T04:34:13.356Z,6.33
2018-07-06T04:35:28.060Z,5.90
2018-07-06T04:36:42.761Z,7.03
2018-07-06T04:37:57.393Z,6.25
2018-07-06T04:39:12.273Z,6.30
2018-07-06T04:40:26.976Z,5.95
2018-07-06T04:41:41.937Z,6.08
2018-07-06T04:42:56.765Z,6.22
2018-07-06T04:44:11.414Z,5.63
2018-07-06T04:45:26.131Z,5.83
2018-07-06T04:46:40.996Z,5.72
2018-07-06T04:47:55.757Z,5.70
2018-07-06T04:49:10.651Z,6.20
2018-07-06T04:50:25.143Z,6.35
2018-07-06T04:51:39.978Z,7.35
2018-07-06T04:52:54.648Z,6.37
2018-07-06T04:54:09.402Z,7.35
2018-07-06T04:55:24.398Z,7.08
2018-07-06T04:56:39.122Z,7.35
2018-07-06T04:57:54.052Z,8.68
2018-07-06T04:59:08.681Z,6.72
2018-07-06T05:00:23.404Z,8.83
2018-07-06T05:01:38.163Z,8.78
2018-07-06T05:02:52.909Z,6.03
2018-07-06T05:04:07.593Z,11.97
2018-07-06T05:05:22.302Z,11.70
2018-07-06T05:06:36.989Z,15.15
2018-07-06T05:07:51.714Z,16.42
2018-07-06T05:09:06.400Z,18.57
2018-07-06T05:10:21.083Z,16.85
2018-07-06T05:11:35.816Z,19.52
2018-07-06T05:12:50.557Z,20.62
2018-07-06T05:14:05.196Z,18.12
2018-07-06T05:15:20.078Z,21.50
2018-07-06T05:16:34.604Z,19.02
2018-07-06T05:17:49.412Z,21.35
2018-07-06T05:19:04.105Z,18.15
2018-07-06T05:20:18.961Z,18.32
2018-07-06T05:21:33.603Z,16.42
2018-07-06T05:22:48.317Z,17.17
2018-07-06T05:24:03.240Z,16.90
2018-07-06T05:25:17.866Z,18.52
2018-07-06T05:26:32.404Z,14.98
2018-07-06T05:27:47.163Z,13.75
2018-07-06T05:29:02.045Z,16.12
2018-07-06T05:30:16.720Z,12.63
2018-07-06T05:31:31.423Z,13.48
2018-07-06T05:32:45.992Z,13.25
2018-07-06T05:34:00.802Z,12.60
2018-07-06T05:35:15.668Z,11.60
2018-07-06T05:36:30.478Z,9.85
2018-07-06T05:37:45.162Z,11.20
2018-07-06T05:38:59.916Z,10.63
2018-07-06T05:40:14.617Z,10.53
2018-07-06T05:41:29.120Z,11.08
2018-07-06T05:42:43.769Z,9.98
2018-07-06T05:43:58.573Z,9.35
2018-07-06T05:45:13.330Z,9.80
2018-07-06T05:46:27.915Z,9.40
2018-07-06T05:47:42.521Z,8.38
2018-07-06T05:48:57.244Z,7.92
2018-07-06T05:50:13.209Z,9.40
2018-07-06T05:51:27.903Z,9.15
2018-07-06T05:52:42.725Z,7.78
2018-07-06T05:53:57.473Z,9.28
2018-07-06T05:55:12.193Z,9.00
2018-07-06T05:56:26.981Z,9.30
2018-07-06T05:57:41.748Z,7.03
2018-07-06T05:58:56.525Z,8.00
2018-07-06T06:00:11.233Z,9.23
2018-07-06T06:01:26.050Z,7.67
2018-07-06T06:02:40.801Z,7.70
2018-07-06T06:03:55.550Z,7.00
2018-07-06T06:05:10.162Z,7.12
2018-07-06T06:06:24.791Z,7.28
2018-07-06T06:07:27.290Z,7.33
2018-07-06T06:08:29.557Z,8.43
2018-07-06T06:09:32.931Z,8.00
2018-07-06T06:10:36.423Z,7.03
2018-07-06T06:11:39.857Z,7.67
2018-07-06T06:12:43.262Z,8.08
2018-07-06T06:13:46.611Z,6.95
2018-07-06T06:14:50.672Z,6.92
2018-07-06T06:15:53.914Z,7.08
2018-07-06T06:16:57.383Z,7.62
2018-07-06T06:18:00.829Z,7.08
2018-07-06T06:19:04.192Z,7.60
2018-07-06T06:20:13.279Z,6.70
2018-07-06T06:21:16.732Z,7.10
2018-07-06T06:22:20.116Z,7.50
2018-07-06T06:23:23.456Z,7.20
2018-07-06T06:24:27.068Z,6.72
2018-07-06T06:25:30.278Z,7.05
2018-07-06T06:26:33.778Z,6.87
2018-07-06T06:27:37.256Z,6.50
2018-07-06T06:28:40.729Z,5.78
2018-07-06T06:29:44.220Z,7.30
2018-07-06T06:30:47.777Z,6.83
2018-07-06T06:31:51.312Z,7.72
2018-07-06T06:32:55.114Z,6.03
2018-07-06T06:34:00.083Z,5.90
2018-07-06T06:35:03.537Z,7.27
2018-07-06T06:36:06.943Z,5.90
2018-07-06T06:37:10.341Z,5.47
2018-07-06T06:38:13.716Z,6.10
2018-07-06T06:39:17.157Z,6.40
2018-07-06T06:40:20.556Z,6.10
2018-07-06T06:41:24.144Z,6.12
2018-07-06T06:42:27.516Z,7.20
2018-07-06T06:43:30.906Z,6.95
2018-07-06T06:44:34.440Z,6.33
2018-07-06T06:45:37.841Z,8.43
2018-07-06T06:46:41.308Z,7.08
2018-07-06T06:47:44.709Z,7.35
2018-07-06T06:48:48.296Z,7.50
2018-07-06T06:49:51.677Z,6.40
2018-07-06T06:50:55.020Z,6.60
2018-07-06T06:51:58.527Z,7.87
2018-07-06T06:53:01.948Z,8.90
2018-07-06T06:54:05.264Z,7.63
2018-07-06T06:55:08.625Z,9.10
2018-07-06T06:56:12.237Z,8.50
2018-07-06T06:57:15.662Z,8.30
2018-07-06T06:58:19.021Z,6.50
2018-07-06T06:59:22.925Z,7.10
2018-07-06T07:00:27.662Z,6.80
2018-07-06T07:01:29.901Z,8.28
2018-07-06T07:02:33.368Z,8.05
2018-07-06T07:03:36.991Z,8.77
2018-07-06T07:04:40.700Z,7.62
2018-07-06T07:05:44.104Z,6.85
2018-07-06T07:06:47.622Z,8.87
2018-07-06T07:07:51.169Z,10.23
2018-07-06T07:08:54.524Z,7.73
2018-07-06T07:09:57.914Z,9.43
2018-07-06T07:11:01.493Z,9.38
2018-07-06T07:12:04.977Z,8.73
2018-07-06T07:13:08.737Z,10.00
2018-07-06T07:14:12.630Z,9.67
2018-07-06T07:15:16.128Z,10.07
2018-07-06T07:16:19.661Z,8.40
2018-07-06T07:17:23.236Z,9.90
2018-07-06T07:18:26.638Z,9.97
2018-07-06T07:19:29.999Z,9.17
2018-07-06T07:20:33.457Z,10.60
2018-07-06T07:21:36.757Z,9.20
2018-07-06T07:22:40.192Z,8.87
2018-07-06T07:23:43.593Z,10.40
2018-07-06T07:24:46.901Z,9.40
2018-07-06T07:25:50.220Z,9.17
2018-07-06T07:26:53.657Z,9.70
2018-07-06T07:27:57.137Z,10.20
2018-07-06T07:29:00.489Z,10.40
2018-07-06T07:30:03.963Z,10.07
2018-07-06T07:31:07.253Z,8.00
2018-07-06T07:32:11.696Z,8.43
2018-07-06T07:33:15.059Z,8.73
2018-07-06T07:34:18.495Z,9.47
2018-07-06T07:35:21.857Z,9.03
2018-07-06T07:36:25.541Z,8.95
2018-07-06T07:37:28.974Z,10.93
2018-07-06T07:38:32.293Z,8.50
2018-07-06T07:39:35.698Z,9.20
2018-07-06T07:40:39.132Z,10.53
2018-07-06T07:41:42.548Z,8.67
2018-07-06T07:42:46.136Z,9.90
2018-07-06T07:43:49.631Z,9.20
2018-07-06T07:44:53.213Z,10.27
2018-07-06T07:45:56.774Z,8.90
2018-07-06T07:47:00.182Z,9.33
2018-07-06T07:48:03.676Z,10.13
2018-07-06T07:49:07.064Z,10.80
2018-07-06T07:50:10.670Z,9.93
2018-07-06T07:51:58.796Z,10.97
2018-07-06T07:53:13.497Z,11.23
2018-07-06T07:54:25.595Z,10.63
2018-07-06T07:55:28.892Z,12.60
2018-07-06T07:56:32.232Z,11.27
2018-07-06T07:57:35.608Z,10.97
2018-07-06T07:58:39.096Z,11.33
2018-07-06T07:59:42.965Z,9.43
2018-07-06T08:00:46.378Z,9.97
2018-07-06T08:01:49.645Z,11.30
2018-07-06T08:02:53.125Z,10.93
2018-07-06T08:03:56.493Z,11.90
2018-07-06T08:04:59.815Z,9.97
2018-07-06T08:06:03.480Z,9.47
2018-07-06T08:07:07.330Z,12.80
2018-07-06T08:08:10.701Z,11.30
2018-07-06T08:09:14.312Z,12.00
2018-07-06T08:10:17.653Z,9.60
2018-07-06T08:11:20.992Z,10.60
2018-07-06T08:12:24.444Z,8.80
2018-07-06T08:13:27.825Z,10.57
2018-07-06T08:14:31.339Z,9.75
2018-07-06T08:15:34.623Z,9.60
2018-07-06T08:16:37.984Z,8.80
2018-07-06T08:17:41.440Z,9.70
2018-07-06T08:18:44.953Z,10.73
2018-07-06T08:19:48.329Z,8.20
2018-07-06T08:20:51.806Z,11.07
2018-07-06T08:21:55.193Z,9.20
2018-07-06T08:22:58.557Z,7.30
2018-07-06T08:24:02.023Z,8.17
2018-07-06T08:25:05.381Z,9.03
2018-07-06T08:26:08.909Z,10.70
2018-07-06T08:27:12.445Z,8.97
2018-07-06T08:28:16.753Z,11.13
2018-07-06T08:29:20.115Z,11.80
2018-07-06T08:30:23.558Z,8.60
2018-07-06T08:31:27.043Z,10.80
2018-07-06T08:32:30.386Z,10.40
2018-07-06T08:33:39.244Z,11.87
2018-07-06T08:35:51.804Z,12.03
2018-07-06T08:37:38.317Z,9.83
2018-07-06T08:38:41.802Z,11.88
2018-07-06T08:39:45.251Z,12.70
2018-07-06T08:40:48.697Z,11.00
2018-07-06T08:41:52.633Z,10.07
2018-07-06T08:43:00.262Z,13.20
2018-07-06T08:44:03.664Z,11.70
2018-07-06T08:45:07.431Z,12.23
2018-07-06T08:46:10.790Z,12.10
2018-07-06T08:47:14.126Z,9.00
2018-07-06T08:48:17.819Z,9.67
2018-07-06T08:49:21.295Z,8.97
2018-07-06T08:50:24.751Z,9.07
2018-07-06T08:51:29.913Z,9.65
2018-07-06T08:52:33.348Z,11.33
2018-07-06T08:53:36.960Z,9.73
2018-07-06T08:54:40.357Z,9.27
2018-07-06T08:55:43.814Z,8.50
2018-07-06T08:56:47.189Z,8.43
2018-07-06T08:57:51.792Z,9.03
2018-07-06T08:58:55.170Z,8.53
2018-07-06T08:59:58.684Z,8.33
2018-07-06T09:01:02.121Z,12.83
2018-07-06T09:02:05.497Z,12.50
2018-07-06T09:03:08.551Z,8.13
2018-07-06T09:04:11.917Z,8.30
2018-07-06T09:05:15.363Z,8.73
2018-07-06T09:06:18.837Z,8.73
2018-07-06T09:07:22.229Z,10.40
2018-07-06T09:08:25.920Z,11.27
2018-07-06T09:09:29.563Z,11.00
2018-07-06T09:10:33.069Z,9.10
2018-07-06T09:11:36.433Z,9.40
2018-07-06T09:12:40.281Z,10.20
2018-07-06T09:13:43.608Z,11.00
2018-07-06T09:14:46.952Z,10.10
2018-07-06T09:15:50.304Z,11.40
2018-07-06T09:16:53.672Z,9.03
2018-07-06T09:17:57.030Z,9.27
2018-07-06T09:19:00.361Z,10.30
2018-07-06T09:20:03.882Z,10.77
2018-07-06T09:21:06.876Z,10.80
2018-07-06T09:22:10.573Z,10.63
2018-07-06T09:23:13.974Z,9.60
2018-07-06T09:24:17.427Z,11.73
2018-07-06T09:25:20.702Z,9.90
2018-07-06T09:26:24.181Z,9.07
2018-07-06T09:27:27.819Z,9.50
2018-07-06T09:28:31.188Z,10.87
2018-07-06T09:29:34.767Z,11.37
2018-07-06T09:30:38.237Z,10.40
2018-07-06T09:31:41.889Z,10.30
2018-07-06T09:32:45.277Z,9.43
2018-07-06T09:33:48.853Z,9.60
2018-07-06T09:34:52.184Z,10.53
2018-07-06T09:35:55.708Z,10.63
2018-07-06T09:36:59.033Z,10.90
2018-07-06T09:38:02.397Z,9.00
2018-07-06T09:39:05.917Z,9.27
2018-07-06T09:40:09.821Z,10.30
2018-07-06T09:41:12.868Z,9.30
2018-07-06T09:42:16.822Z,10.63
2018-07-06T09:43:20.212Z,8.93
2018-07-06T09:44:23.518Z,8.67
2018-07-06T09:45:26.844Z,10.43
2018-07-06T09:46:30.303Z,9.50
2018-07-06T09:47:33.714Z,9.47
2018-07-06T09:48:37.266Z,9.20
2018-07-06T09:49:40.638Z,9.43
2018-07-06T09:50:44.226Z,10.27
2018-07-06T09:51:47.680Z,10.47
2018-07-06T09:52:50.810Z,10.57
2018-07-06T09:53:54.290Z,11.63
2018-07-06T09:54:57.725Z,11.90
2018-07-06T09:56:01.112Z,11.20
2018-07-06T09:57:04.551Z,9.13
2018-07-06T09:58:08.086Z,11.07
2018-07-06T09:59:11.469Z,10.67
2018-07-06T10:01:19.566Z,12.00
2018-07-06T10:02:23.284Z,10.17
2018-07-06T10:03:27.085Z,11.17
2018-07-06T10:04:30.604Z,11.53
2018-07-06T10:05:34.055Z,12.60
2018-07-06T10:06:37.477Z,10.90
2018-07-06T10:07:40.973Z,11.60
2018-07-06T10:08:44.329Z,11.10
2018-07-06T10:09:48.333Z,12.00
2018-07-06T10:10:51.891Z,10.13
2018-07-06T10:11:55.876Z,11.10
2018-07-06T10:12:59.433Z,10.73
2018-07-06T10:14:04.489Z,9.90
2018-07-06T10:15:07.886Z,12.73
2018-07-06T10:16:11.268Z,8.83
2018-07-06T10:17:14.731Z,8.70
2018-07-06T10:18:18.085Z,7.10
2018-07-06T10:19:21.433Z,7.90
2018-07-06T10:20:25.288Z,7.40
2018-07-06T10:21:28.621Z,7.20
2018-07-06T10:22:32.211Z,7.30
2018-07-06T10:23:36.689Z,7.67
2018-07-06T10:24:40.008Z,7.43
2018-07-06T10:25:43.448Z,6.90
2018-07-06T10:26:46.936Z,7.33
2018-07-06T10:28:03.959Z,6.40
2018-07-06T10:31:22.147Z,6.07
2018-07-06T10:32:26.792Z,6.10
2018-07-06T10:33:30.821Z,6.47
2018-07-06T10:34:34.194Z,6.27
2018-07-06T10:35:37.561Z,6.97
2018-07-06T10:36:40.896Z,7.40
2018-07-06T10:37:44.357Z,8.30
2018-07-06T10:38:47.760Z,7.53
2018-07-06T10:39:51.793Z,7.80
2018-07-06T10:40:55.126Z,7.63
2018-07-06T10:41:58.598Z,6.00
2018-07-06T10:43:02.091Z,6.20
2018-07-06T10:44:05.544Z,6.23
2018-07-06T10:45:08.944Z,5.93
2018-07-06T10:46:12.304Z,6.83
2018-07-06T10:47:15.356Z,7.83
2018-07-06T10:48:18.764Z,6.33
2018-07-06T10:49:22.126Z,6.27
2018-07-06T10:50:25.470Z,7.77
2018-07-06T10:51:28.887Z,7.07
2018-07-06T10:52:32.249Z,7.30
2018-07-06T10:53:35.592Z,7.43
2018-07-06T10:54:40.274Z,6.73
2018-07-06T10:55:43.972Z,6.73
2018-07-06T10:56:47.355Z,6.50
2018-07-06T10:57:51.076Z,6.20
2018-07-06T10:58:54.416Z,7.10
2018-07-06T10:59:57.885Z,7.53
2018-07-06T11:01:01.246Z,8.07
2018-07-06T11:02:04.593Z,7.57
2018-07-06T11:03:08.049Z,7.50
2018-07-06T11:04:11.514Z,9.23
2018-07-06T11:05:14.905Z,7.67
2018-07-06T11:06:18.473Z,8.73
2018-07-06T11:07:21.902Z,7.37
2018-07-06T11:08:25.393Z,9.97
2018-07-06T11:09:28.768Z,9.20
2018-07-06T11:10:32.290Z,10.60
2018-07-06T11:11:35.664Z,10.00
2018-07-06T11:12:39.100Z,10.60
2018-07-06T11:13:42.489Z,10.50
2018-07-06T11:14:45.897Z,9.40
2018-07-06T11:15:49.321Z,9.40
2018-07-06T11:16:52.934Z,9.50
2018-07-06T11:17:56.513Z,10.43
2018-07-06T11:18:59.922Z,11.13
2018-07-06T11:20:03.309Z,11.90
2018-07-06T11:21:06.702Z,10.50
2018-07-06T11:22:10.036Z,10.70
2018-07-06T11:23:13.400Z,11.43
2018-07-06T11:24:16.993Z,11.27
2018-07-06T11:25:20.490Z,12.20
2018-07-06T11:26:23.911Z,14.20
2018-07-06T11:27:27.272Z,14.30
2018-07-06T11:28:30.646Z,12.50
2018-07-06T11:29:34.338Z,12.80
2018-07-06T11:30:37.818Z,12.40
2018-07-06T11:31:41.229Z,13.47
2018-07-06T11:32:44.864Z,14.67
2018-07-06T11:33:48.301Z,14.40
2018-07-06T11:34:51.637Z,15.47
2018-07-06T11:35:54.961Z,17.27
2018-07-06T11:36:58.303Z,14.80
2018-07-06T11:38:01.664Z,15.10
2018-07-06T11:39:06.397Z,14.07
2018-07-06T11:40:09.767Z,17.03
2018-07-06T11:41:13.132Z,16.30
2018-07-06T11:42:16.522Z,15.50
2018-07-06T11:43:19.980Z,16.90
2018-07-06T11:44:23.806Z,14.70
2018-07-06T11:45:27.166Z,13.67
2018-07-06T11:46:30.645Z,15.67
2018-07-06T11:47:34.164Z,15.10
2018-07-06T11:48:37.601Z,13.77
2018-07-06T11:49:41.086Z,15.57
2018-07-06T11:50:45.143Z,14.30
2018-07-06T11:51:48.868Z,14.83
2018-07-06T11:52:52.343Z,15.57
2018-07-06T11:53:55.779Z,15.13
2018-07-06T11:54:59.130Z,13.90
2018-07-06T11:56:02.596Z,16.03
2018-07-06T11:57:06.143Z,15.17
2018-07-06T11:58:09.621Z,14.40
2018-07-06T11:59:12.929Z,13.03
2018-07-06T12:00:16.302Z,15.30
2018-07-06T12:01:19.670Z,15.40
2018-07-06T12:02:23.173Z,15.57
2018-07-06T12:03:26.862Z,18.90
2018-07-06T12:04:30.286Z,16.40
2018-07-06T12:05:33.636Z,14.73
2018-07-06T12:06:37.272Z,14.00
2018-07-06T12:07:40.731Z,14.27
2018-07-06T12:08:44.195Z,15.30
2018-07-06T12:09:47.606Z,17.43
2018-07-06T12:10:51.025Z,16.90
2018-07-06T12:11:54.408Z,15.70
2018-07-06T12:12:57.796Z,14.30
2018-07-06T12:14:01.185Z,13.47
2018-07-06T12:15:04.760Z,13.80
2018-07-06T12:16:08.270Z,13.40
2018-07-06T12:17:11.767Z,14.17
2018-07-06T12:18:15.209Z,13.50
2018-07-06T12:19:18.563Z,13.03
2018-07-06T12:20:21.644Z,12.57
2018-07-06T12:21:25.170Z,13.90
2018-07-06T12:22:28.594Z,13.55
2018-07-06T12:23:32.074Z,11.97
2018-07-06T12:24:35.385Z,12.77
2018-07-06T12:25:38.860Z,11.90
2018-07-06T12:26:42.328Z,12.77
2018-07-06T12:27:45.904Z,12.80
2018-07-06T12:28:49.340Z,11.73
2018-07-06T12:29:52.779Z,11.20
2018-07-06T12:30:56.144Z,12.23
2018-07-06T12:32:00.647Z,11.50
2018-07-06T12:33:04.996Z,13.03
2018-07-06T12:34:08.445Z,12.73
2018-07-06T12:35:12.455Z,12.27
2018-07-06T12:36:17.517Z,12.60
2018-07-06T12:37:21.802Z,12.53
2018-07-06T12:38:25.345Z,12.60
2018-07-06T12:39:28.814Z,10.50
2018-07-06T12:40:32.616Z,13.03
2018-07-06T12:41:37.182Z,14.47
2018-07-06T12:42:41.650Z,10.80
2018-07-06T12:43:46.161Z,12.93
2018-07-06T12:44:50.160Z,11.63
2018-07-06T12:45:53.512Z,12.60
2018-07-06T12:46:56.873Z,11.47
2018-07-06T12:48:00.196Z,12.43
2018-07-06T12:49:03.737Z,12.40
2018-07-06T12:50:07.099Z,12.40
2018-07-06T12:51:10.444Z,11.27
2018-07-06T12:52:13.936Z,10.80
2018-07-06T12:53:17.436Z,15.23
2018-07-06T12:54:20.777Z,14.50
2018-07-06T12:55:24.223Z,15.13
2018-07-06T12:56:27.768Z,14.10
2018-07-06T12:57:31.279Z,13.40
2018-07-06T12:58:34.684Z,12.07
2018-07-06T12:59:38.043Z,12.47
2018-07-06T13:00:41.700Z,10.80
2018-07-06T13:01:45.186Z,11.47
2018-07-06T13:02:49.484Z,11.43
2018-07-06T13:03:52.890Z,11.77
2018-07-06T13:04:57.251Z,10.50
2018-07-06T13:06:00.644Z,11.27
2018-07-06T13:07:03.989Z,11.63
2018-07-06T13:08:07.389Z,10.20
2018-07-06T13:09:10.805Z,10.90
2018-07-06T13:10:14.214Z,10.60
2018-07-06T13:11:17.674Z,8.97
2018-07-06T13:12:21.186Z,10.53
2018-07-06T13:13:24.654Z,10.47
2018-07-06T13:14:28.051Z,8.90
2018-07-06T13:15:31.448Z,8.80
2018-07-06T13:16:34.850Z,7.70
2018-07-06T13:17:39.862Z,7.50
2018-07-06T13:18:43.400Z,7.10
2018-07-06T13:19:46.740Z,7.77
2018-07-06T13:20:50.178Z,6.80
2018-07-06T13:21:53.610Z,7.73
2018-07-06T13:22:57.165Z,6.40
2018-07-06T13:24:00.304Z,6.47
2018-07-06T13:25:03.689Z,7.23
2018-07-06T13:26:07.274Z,6.30
2018-07-06T13:27:10.881Z,6.13
2018-07-06T13:28:14.361Z,6.13
2018-07-06T13:29:17.756Z,5.60
2018-07-06T13:30:21.314Z,5.87
2018-07-06T13:31:24.702Z,5.30
2018-07-06T13:32:28.035Z,6.07
2018-07-06T13:33:31.917Z,6.30
2018-07-06T13:34:35.268Z,5.80
2018-07-06T13:35:38.796Z,5.03
2018-07-06T13:36:42.801Z,4.90
2018-07-06T13:37:46.561Z,5.03
2018-07-06T13:38:50.025Z,6.47
2018-07-06T13:39:53.488Z,5.83
2018-07-06T13:40:56.852Z,5.47
2018-07-06T13:42:00.470Z,4.87
2018-07-06T13:43:03.507Z,6.20
2018-07-06T13:44:07.037Z,5.00
2018-07-06T13:45:10.841Z,5.70
2018-07-06T13:46:15.306Z,5.53
2018-07-06T13:47:18.696Z,5.50
2018-07-06T13:48:22.092Z,5.50
2018-07-06T13:49:25.550Z,5.20
2018-07-06T13:50:28.981Z,4.90
2018-07-06T13:51:32.449Z,5.77
2018-07-06T13:52:35.831Z,4.90
2018-07-06T13:53:39.224Z,5.10
2018-07-06T13:54:42.670Z,5.03
2018-07-06T13:55:46.123Z,6.20
2018-07-06T13:56:49.173Z,5.70
2018-07-06T13:57:52.945Z,6.13
2018-07-06T13:58:56.514Z,7.03
2018-07-06T14:00:00.646Z,7.37
2018-07-06T14:01:04.364Z,5.50
2018-07-06T14:02:07.709Z,4.13
2018-07-06T14:03:11.049Z,4.93
2018-07-06T14:04:14.276Z,5.00
2018-07-06T14:05:17.604Z,5.63
2018-07-06T14:06:20.988Z,4.77
2018-07-06T14:07:24.347Z,5.23
2018-07-06T14:08:27.780Z,4.80
2018-07-06T14:09:31.005Z,4.50
2018-07-06T14:10:34.613Z,4.03
2018-07-06T14:11:38.053Z,3.40
2018-07-06T14:12:41.449Z,4.30
2018-07-06T14:13:45.259Z,4.00
2018-07-06T14:14:49.111Z,3.23
2018-07-06T14:15:52.581Z,4.00
2018-07-06T14:16:55.983Z,3.10
2018-07-06T14:17:59.396Z,3.70
2018-07-06T14:19:02.797Z,3.50
2018-07-06T14:20:06.357Z,3.57
2018-07-06T14:21:09.781Z,3.07
2018-07-06T14:22:13.128Z,6.00
2018-07-06T14:23:16.597Z,3.97
2018-07-06T14:24:20.153Z,4.10
2018-07-06T14:25:23.542Z,4.00
2018-07-06T14:26:27.038Z,4.27
2018-07-06T14:27:30.395Z,4.17
2018-07-06T14:28:33.791Z,4.23
2018-07-06T14:29:39.225Z,3.73
2018-07-06T14:30:42.562Z,5.07
2018-07-06T14:31:45.998Z,4.87
2018-07-06T14:32:49.558Z,3.60
2018-07-06T14:33:52.880Z,4.30
2018-07-06T14:34:56.804Z,3.70
2018-07-06T14:36:00.520Z,3.93
2018-07-06T14:37:03.993Z,5.30
2018-07-06T14:38:07.709Z,3.80
2018-07-06T14:39:11.130Z,3.33
2018-07-06T14:40:14.465Z,3.17
2018-07-06T14:41:18.035Z,3.53
2018-07-06T14:42:21.593Z,4.23
2018-07-06T14:43:25.285Z,4.47
2018-07-06T14:44:28.768Z,3.87
2018-07-06T14:45:32.462Z,4.30
2018-07-06T14:46:36.484Z,4.00
2018-07-06T14:47:40.294Z,3.90
2018-07-06T14:48:43.854Z,4.00
2018-07-06T14:49:47.368Z,3.33
2018-07-06T14:50:50.797Z,2.90
2018-07-06T14:51:54.393Z,3.13
2018-07-06T14:52:57.755Z,2.93
2018-07-06T14:54:01.109Z,3.57
2018-07-06T14:55:04.849Z,3.00
2018-07-06T14:56:08.234Z,3.43
2018-07-06T14:57:11.665Z,3.53
2018-07-06T14:58:15.039Z,7.87